sensor_id;sensor_type;location;lat;lon;timestamp;pressure;altitude;pressure_sealevel;temperature;humidity
68474;BME280;55461;52.066;5.194;2023-02-10T00:01:25;103521.0;;;2.42;100.0
68474;BME280;55461;52.066;5.194;2023-02-10T00:03:03;103519.0;;;2.46;100.0
68474;BME280;55461;52.066;5.194;2023-02-10T00:04:39;103521.0;;;2.42;100.0
68474;BME280;55461;52.066;5.194;2023-02-10T00:07:53;103518.0;;;2.46;100.0
68474;BME280;55461;52.066;5.194;2023-02-10T00:09:30;103521.0;;;2.38;100.0
68474;BME280;55461;52.066;5.194;2023-02-10T00:11:08;103520.0;;;2.31;100.0
68474;BME280;55461;52.066;5.194;2023-02-10T00:14:23;103520.0;;;2.31;100.0
68474;BME280;55461;52.066;5.194;2023-02-10T00:16:01;103524.0;;;2.35;100.0
68474;BME280;55461;52.066;5.194;2023-02-10T00:17:38;103526.0;;;2.21;99.92
68474;BME280;55461;52.066;5.194;2023-02-10T00:20:50;103529.0;;;2.17;99.81
68474;BME280;55461;52.066;5.194;2023-02-10T00:22:27;103523.0;;;2.16;99.8
68474;BME280;55461;52.066;5.194;2023-02-10T00:24:03;103525.0;;;2.14;99.73
68474;BME280;55461;52.066;5.194;2023-02-10T00:25:40;103524.0;;;2.08;100.0
68474;BME280;55461;52.066;5.194;2023-02-10T00:28:59;103524.0;;;1.97;99.87
68474;BME280;55461;52.066;5.194;2023-02-10T00:30:36;103528.0;;;1.86;99.52
68474;BME280;55461;52.066;5.194;2023-02-10T00:32:13;103523.0;;;1.76;99.94
68474;BME280;55461;52.066;5.194;2023-02-10T00:35:26;103520.0;;;1.71;99.96
68474;BME280;55461;52.066;5.194;2023-02-10T00:37:01;103518.0;;;1.65;99.66
68474;BME280;55461;52.066;5.194;2023-02-10T00:38:39;103522.0;;;1.54;99.86
68474;BME280;55461;52.066;5.194;2023-02-10T00:40:16;103519.0;;;1.48;99.69
68474;BME280;55461;52.066;5.194;2023-02-10T00:43:30;103521.0;;;1.42;99.83
68474;BME280;55461;52.066;5.194;2023-02-10T00:45:07;103526.0;;;1.39;99.26
68474;BME280;55461;52.066;5.194;2023-02-10T00:46:44;103525.0;;;1.38;99.95
68474;BME280;55461;52.066;5.194;2023-02-10T00:49:56;103523.0;;;1.34;99.27
68474;BME280;55461;52.066;5.194;2023-02-10T00:51:32;103524.0;;;1.28;99.37
68474;BME280;55461;52.066;5.194;2023-02-10T00:53:09;103525.0;;;1.28;99.37
68474;BME280;55461;52.066;5.194;2023-02-10T00:56:21;103531.0;;;1.27;99.23
68474;BME280;55461;52.066;5.194;2023-02-10T00:57:58;103528.0;;;1.27;99.49
68474;BME280;55461;52.066;5.194;2023-02-10T00:59:34;103528.0;;;1.23;99.34
68474;BME280;55461;52.066;5.194;2023-02-10T01:01:11;103533.0;;;1.17;99.39
68474;BME280;55461;52.066;5.194;2023-02-10T01:04:23;103534.99999999999;;;1.14;99.54
68474;BME280;55461;52.066;5.194;2023-02-10T01:05:59;103534.99999999999;;;1.16;99.96
68474;BME280;55461;52.066;5.194;2023-02-10T01:07:36;103532.0;;;1.11;100.0
68474;BME280;55461;52.066;5.194;2023-02-10T01:10:48;103529.0;;;1.04;99.98
68474;BME280;55461;52.066;5.194;2023-02-10T01:12:24;103531.0;;;0.99;99.76
68474;BME280;55461;52.066;5.194;2023-02-10T01:14:00;103526.0;;;0.99;99.67
68474;BME280;55461;52.066;5.194;2023-02-10T01:17:17;103525.0;;;0.92;99.61
68474;BME280;55461;52.066;5.194;2023-02-10T01:18:54;103528.0;;;0.89;99.65
68474;BME280;55461;52.066;5.194;2023-02-10T01:20:30;103533.0;;;0.84;99.73
68474;BME280;55461;52.066;5.194;2023-02-10T01:22:07;103541.00000000001;;;0.81;99.98
68474;BME280;55461;52.066;5.194;2023-02-10T01:25:20;103545.0;;;0.79;99.78
68474;BME280;55461;52.066;5.194;2023-02-10T01:26:57;103545.0;;;0.78;99.42
68474;BME280;55461;52.066;5.194;2023-02-10T01:28:33;103544.0;;;0.71;99.53
68474;BME280;55461;52.066;5.194;2023-02-10T01:31:48;103550.0;;;0.7;99.6
68474;BME280;55461;52.066;5.194;2023-02-10T01:33:24;103546.0;;;0.68;99.7
68474;BME280;55461;52.066;5.194;2023-02-10T01:35:00;103548.0;;;0.64;99.65
68474;BME280;55461;52.066;5.194;2023-02-10T01:38:13;103548.0;;;0.64;99.25
68474;BME280;55461;52.066;5.194;2023-02-10T01:39:49;103552.0;;;0.54;99.45
68474;BME280;55461;52.066;5.194;2023-02-10T01:41:25;103552.0;;;0.52;99.76
68474;BME280;55461;52.066;5.194;2023-02-10T01:43:10;103554.0;;;0.5;99.91
68474;BME280;55461;52.066;5.194;2023-02-10T01:47:07;103556.0;;;0.56;100.0
68474;BME280;55461;52.066;5.194;2023-02-10T01:48:44;103558.0;;;0.64;100.0
68474;BME280;55461;52.066;5.194;2023-02-10T01:50:22;103554.0;;;0.59;100.0
68474;BME280;55461;52.066;5.194;2023-02-10T01:52:03;103550.0;;;0.57;100.0
68474;BME280;55461;52.066;5.194;2023-02-10T01:53:43;103551.0;;;0.49;100.0
68474;BME280;55461;52.066;5.194;2023-02-10T01:57:01;103556.0;;;0.48;100.0
68474;BME280;55461;52.066;5.194;2023-02-10T01:58:38;103558.0;;;0.5;100.0
68474;BME280;55461;52.066;5.194;2023-02-10T02:00:15;103558.99999999999;;;0.51;100.0
68474;BME280;55461;52.066;5.194;2023-02-10T02:01:51;103558.0;;;0.49;100.0
68474;BME280;55461;52.066;5.194;2023-02-10T02:05:06;103557.0;;;0.49;100.0
68474;BME280;55461;52.066;5.194;2023-02-10T02:06:43;103551.0;;;0.46;100.0
68474;BME280;55461;52.066;5.194;2023-02-10T02:08:22;103552.0;;;0.48;100.0
68474;BME280;55461;52.066;5.194;2023-02-10T02:11:50;103550.0;;;0.57;100.0
68474;BME280;55461;52.066;5.194;2023-02-10T02:13:42;103555.0;;;0.45;100.0
68474;BME280;55461;52.066;5.194;2023-02-10T02:15:29;103557.0;;;0.39;100.0
68474;BME280;55461;52.066;5.194;2023-02-10T02:17:15;103559.99999999999;;;0.35;100.0
68474;BME280;55461;52.066;5.194;2023-02-10T02:19:01;103561.99999999999;;;0.34;100.0
68474;BME280;55461;52.066;5.194;2023-02-10T02:22:03;103569.0;;;0.3;100.0
68474;BME280;55461;52.066;5.194;2023-02-10T02:24:41;103566.00000000001;;;0.32;100.0
68474;BME280;55461;52.066;5.194;2023-02-10T02:27:04;103565.00000000001;;;0.3;100.0
68474;BME280;55461;52.066;5.194;2023-02-10T02:29:34;103561.99999999999;;;0.29;100.0
68474;BME280;55461;52.066;5.194;2023-02-10T02:31:55;103558.99999999999;;;0.29;100.0
68474;BME280;55461;52.066;5.194;2023-02-10T02:33:36;103553.0;;;0.27;100.0
68474;BME280;55461;52.066;5.194;2023-02-10T02:35:19;103564.00000000001;;;0.29;99.84
68474;BME280;55461;52.066;5.194;2023-02-10T02:38:42;103561.99999999999;;;0.26;99.8
68474;BME280;55461;52.066;5.194;2023-02-10T02:40:19;103565.00000000001;;;0.26;99.45
68474;BME280;55461;52.066;5.194;2023-02-10T02:42:13;103564.00000000001;;;0.25;99.71
68474;BME280;55461;52.066;5.194;2023-02-10T02:43:50;103567.0;;;0.23;99.6
68474;BME280;55461;52.066;5.194;2023-02-10T02:47:22;103570.0;;;0.21;99.57
68474;BME280;55461;52.066;5.194;2023-02-10T02:49:09;103571.0;;;0.22;99.54
68474;BME280;55461;52.066;5.194;2023-02-10T02:50:55;103573.0;;;0.23;100.0
68474;BME280;55461;52.066;5.194;2023-02-10T02:52:44;103574.0;;;0.25;99.94
68474;BME280;55461;52.066;5.194;2023-02-10T02:54:33;103577.0;;;0.18;99.67
68474;BME280;55461;52.066;5.194;2023-02-10T02:56:23;103582.0;;;0.11;99.78
68474;BME280;55461;52.066;5.194;2023-02-10T02:59:56;103582.0;;;0.15;99.93
68474;BME280;55461;52.066;5.194;2023-02-10T03:01:39;103579.0;;;0.19;100.0
68474;BME280;55461;52.066;5.194;2023-02-10T03:03:18;103576.0;;;0.17;100.0
68474;BME280;55461;52.066;5.194;2023-02-10T03:04:55;103574.0;;;0.22;100.0
68474;BME280;55461;52.066;5.194;2023-02-10T03:08:08;103572.0;;;0.2;100.0
68474;BME280;55461;52.066;5.194;2023-02-10T03:09:44;103570.0;;;0.15;100.0
68474;BME280;55461;52.066;5.194;2023-02-10T03:11:21;103567.0;;;0.11;100.0
68474;BME280;55461;52.066;5.194;2023-02-10T03:12:58;103565.00000000001;;;0.09;100.0
68474;BME280;55461;52.066;5.194;2023-02-10T03:16:10;103570.0;;;0.05;100.0
68474;BME280;55461;52.066;5.194;2023-02-10T03:17:46;103571.0;;;-0.07;100.0
68474;BME280;55461;52.066;5.194;2023-02-10T03:19:22;103569.0;;;-0.03;100.0
68474;BME280;55461;52.066;5.194;2023-02-10T03:22:35;103570.0;;;0.0;100.0
68474;BME280;55461;52.066;5.194;2023-02-10T03:24:11;103572.0;;;-0.02;100.0
68474;BME280;55461;52.066;5.194;2023-02-10T03:25:47;103569.0;;;-0.03;100.0
68474;BME280;55461;52.066;5.194;2023-02-10T03:29:01;103570.0;;;-0.05;100.0
68474;BME280;55461;52.066;5.194;2023-02-10T03:30:38;103572.0;;;-0.04;100.0
68474;BME280;55461;52.066;5.194;2023-02-10T03:32:15;103574.0;;;-0.1;100.0
68474;BME280;55461;52.066;5.194;2023-02-10T03:33:51;103575.0;;;-0.11;100.0
68474;BME280;55461;52.066;5.194;2023-02-10T03:37:03;103574.0;;;-0.18;100.0
68474;BME280;55461;52.066;5.194;2023-02-10T03:38:39;103575.0;;;-0.21;100.0
68474;BME280;55461;52.066;5.194;2023-02-10T03:40:17;103574.0;;;-0.21;100.0
68474;BME280;55461;52.066;5.194;2023-02-10T03:43:30;103578.0;;;-0.2;100.0
68474;BME280;55461;52.066;5.194;2023-02-10T03:45:07;103582.0;;;-0.2;100.0
68474;BME280;55461;52.066;5.194;2023-02-10T03:46:43;103583.0;;;-0.22;100.0
68474;BME280;55461;52.066;5.194;2023-02-10T03:49:55;103588.00000000001;;;-0.21;100.0
68474;BME280;55461;52.066;5.194;2023-02-10T03:51:32;103589.00000000001;;;-0.25;99.83
68474;BME280;55461;52.066;5.194;2023-02-10T03:53:08;103583.0;;;-0.26;100.0
68474;BME280;55461;52.066;5.194;2023-02-10T03:56:20;103583.0;;;-0.21;100.0
68474;BME280;55461;52.066;5.194;2023-02-10T03:57:57;103579.0;;;-0.25;99.96
68474;BME280;55461;52.066;5.194;2023-02-10T03:59:33;103575.0;;;-0.25;100.0
68474;BME280;55461;52.066;5.194;2023-02-10T04:01:11;103576.0;;;-0.27;99.87
68474;BME280;55461;52.066;5.194;2023-02-10T04:04:25;103577.0;;;-0.28;99.97
68474;BME280;55461;52.066;5.194;2023-02-10T04:06:01;103581.0;;;-0.27;99.64
68474;BME280;55461;52.066;5.194;2023-02-10T04:07:37;103580.0;;;-0.25;99.67
68474;BME280;55461;52.066;5.194;2023-02-10T04:10:50;103584.99999999999;;;-0.3;99.57
68474;BME280;55461;52.066;5.194;2023-02-10T04:12:26;103584.99999999999;;;-0.25;99.6
68474;BME280;55461;52.066;5.194;2023-02-10T04:14:03;103586.99999999999;;;-0.22;99.74
68474;BME280;55461;52.066;5.194;2023-02-10T04:17:15;103584.99999999999;;;-0.23;99.24
68474;BME280;55461;52.066;5.194;2023-02-10T04:18:51;103583.0;;;-0.2;99.66
68474;BME280;55461;52.066;5.194;2023-02-10T04:20:27;103584.99999999999;;;-0.16;99.76
68474;BME280;55461;52.066;5.194;2023-02-10T04:22:04;103589.00000000001;;;-0.15;99.44
68474;BME280;55461;52.066;5.194;2023-02-10T04:25:16;103592.0;;;-0.1;99.61
68474;BME280;55461;52.066;5.194;2023-02-10T04:26:52;103596.0;;;-0.13;98.98
68474;BME280;55461;52.066;5.194;2023-02-10T04:28:28;103591.00000000001;;;-0.15;99.44
68474;BME280;55461;52.066;5.194;2023-02-10T04:31:43;103592.0;;;-0.12;99.37
68474;BME280;55461;52.066;5.194;2023-02-10T04:33:20;103596.0;;;-0.1;99.06
68474;BME280;55461;52.066;5.194;2023-02-10T04:34:57;103598.0;;;-0.13;99.07
68474;BME280;55461;52.066;5.194;2023-02-10T04:38:10;103600.0;;;-0.17;98.8
68474;BME280;55461;52.066;5.194;2023-02-10T04:39:46;103600.0;;;-0.12;98.89
68474;BME280;55461;52.066;5.194;2023-02-10T04:41:23;103600.0;;;-0.12;99.01
68474;BME280;55461;52.066;5.194;2023-02-10T04:42:59;103600.0;;;-0.14;98.68
68474;BME280;55461;52.066;5.194;2023-02-10T04:46:13;103605.0;;;-0.15;98.64
68474;BME280;55461;52.066;5.194;2023-02-10T04:47:49;103606.0;;;-0.17;99.01
68474;BME280;55461;52.066;5.194;2023-02-10T04:49:26;103601.0;;;-0.18;99.2
68474;BME280;55461;52.066;5.194;2023-02-10T04:52:43;103596.0;;;-0.17;99.45
68474;BME280;55461;52.066;5.194;2023-02-10T04:54:19;103595.0;;;-0.19;100.0
68474;BME280;55461;52.066;5.194;2023-02-10T04:55:56;103590.00000000001;;;-0.16;100.0
68474;BME280;55461;52.066;5.194;2023-02-10T04:57:32;103584.99999999999;;;-0.14;99.72
68474;BME280;55461;52.066;5.194;2023-02-10T05:00:44;103583.0;;;-0.17;99.52
68474;BME280;55461;52.066;5.194;2023-02-10T05:02:21;103576.0;;;-0.15;99.54
68474;BME280;55461;52.066;5.194;2023-02-10T05:03:57;103573.0;;;-0.16;99.88
68474;BME280;55461;52.066;5.194;2023-02-10T05:07:11;103575.0;;;-0.19;99.62
68474;BME280;55461;52.066;5.194;2023-02-10T05:08:49;103577.0;;;-0.22;99.36
68474;BME280;55461;52.066;5.194;2023-02-10T05:10:25;103583.99999999999;;;-0.25;99.85
68474;BME280;55461;52.066;5.194;2023-02-10T05:13:40;103583.0;;;-0.21;99.62
68474;BME280;55461;52.066;5.194;2023-02-10T05:15:17;103584.99999999999;;;-0.21;99.94
68474;BME280;55461;52.066;5.194;2023-02-10T05:16:54;103591.00000000001;;;-0.24;99.91
68474;BME280;55461;52.066;5.194;2023-02-10T05:18:31;103586.99999999999;;;-0.21;100.0
68474;BME280;55461;52.066;5.194;2023-02-10T05:21:46;103589.00000000001;;;-0.21;99.87
68474;BME280;55461;52.066;5.194;2023-02-10T05:23:22;103591.00000000001;;;-0.27;99.95
68474;BME280;55461;52.066;5.194;2023-02-10T05:24:58;103582.0;;;-0.3;99.83
68474;BME280;55461;52.066;5.194;2023-02-10T05:28:10;103582.0;;;-0.26;99.77
68474;BME280;55461;52.066;5.194;2023-02-10T05:29:46;103592.0;;;-0.33;99.45
68474;BME280;55461;52.066;5.194;2023-02-10T05:31:23;103592.0;;;-0.3;100.0
68474;BME280;55461;52.066;5.194;2023-02-10T05:34:35;103592.0;;;-0.25;100.0
68474;BME280;55461;52.066;5.194;2023-02-10T05:36:11;103597.0;;;-0.28;100.0
68474;BME280;55461;52.066;5.194;2023-02-10T05:37:47;103596.0;;;-0.28;100.0
68474;BME280;55461;52.066;5.194;2023-02-10T05:39:23;103603.0;;;-0.32;99.83
68474;BME280;55461;52.066;5.194;2023-02-10T05:42:37;103601.0;;;-0.33;99.98
68474;BME280;55461;52.066;5.194;2023-02-10T05:44:13;103603.0;;;-0.3;100.0
68474;BME280;55461;52.066;5.194;2023-02-10T05:45:49;103602.0;;;-0.32;100.0
68474;BME280;55461;52.066;5.194;2023-02-10T05:49:01;103594.0;;;-0.33;99.74
68474;BME280;55461;52.066;5.194;2023-02-10T05:50:40;103586.99999999999;;;-0.37;100.0
68474;BME280;55461;52.066;5.194;2023-02-10T05:52:16;103589.00000000001;;;-0.38;100.0
68474;BME280;55461;52.066;5.194;2023-02-10T05:55:30;103591.00000000001;;;-0.35;100.0
68474;BME280;55461;52.066;5.194;2023-02-10T05:57:07;103584.99999999999;;;-0.37;100.0
68474;BME280;55461;52.066;5.194;2023-02-10T05:58:43;103582.0;;;-0.35;100.0
68474;BME280;55461;52.066;5.194;2023-02-10T06:00:20;103584.99999999999;;;-0.36;100.0
68474;BME280;55461;52.066;5.194;2023-02-10T06:03:32;103580.0;;;-0.33;100.0
68474;BME280;55461;52.066;5.194;2023-02-10T06:05:08;103580.0;;;-0.28;100.0
68474;BME280;55461;52.066;5.194;2023-02-10T06:06:46;103577.0;;;-0.33;100.0
68474;BME280;55461;52.066;5.194;2023-02-10T06:09:59;103580.0;;;-0.27;100.0
68474;BME280;55461;52.066;5.194;2023-02-10T06:11:36;103582.0;;;-0.28;100.0
68474;BME280;55461;52.066;5.194;2023-02-10T06:13:12;103591.00000000001;;;-0.28;100.0
68474;BME280;55461;52.066;5.194;2023-02-10T06:16:24;103593.0;;;-0.3;100.0
68474;BME280;55461;52.066;5.194;2023-02-10T06:18:01;103594.0;;;-0.33;100.0
68474;BME280;55461;52.066;5.194;2023-02-10T06:19:39;103597.0;;;-0.34;100.0
68474;BME280;55461;52.066;5.194;2023-02-10T06:21:16;103601.0;;;-0.34;100.0
68474;BME280;55461;52.066;5.194;2023-02-10T06:24:28;103603.0;;;-0.34;100.0
68474;BME280;55461;52.066;5.194;2023-02-10T06:26:04;103608.0;;;-0.37;100.0
68474;BME280;55461;52.066;5.194;2023-02-10T06:27:40;103607.0;;;-0.33;100.0
68474;BME280;55461;52.066;5.194;2023-02-10T06:30:53;103607.0;;;-0.35;100.0
68474;BME280;55461;52.066;5.194;2023-02-10T06:32:30;103616.00000000001;;;-0.32;100.0
68474;BME280;55461;52.066;5.194;2023-02-10T06:34:08;103617.0;;;-0.37;100.0
68474;BME280;55461;52.066;5.194;2023-02-10T06:37:23;103618.0;;;-0.38;100.0
68474;BME280;55461;52.066;5.194;2023-02-10T06:39:00;103614.00000000001;;;-0.37;100.0
68474;BME280;55461;52.066;5.194;2023-02-10T06:40:36;103611.99999999999;;;-0.4;100.0
68474;BME280;55461;52.066;5.194;2023-02-10T06:42:12;103614.00000000001;;;-0.37;100.0
68474;BME280;55461;52.066;5.194;2023-02-10T06:45:24;103615.00000000001;;;-0.39;100.0
68474;BME280;55461;52.066;5.194;2023-02-10T06:47:00;103618.0;;;-0.32;100.0
68474;BME280;55461;52.066;5.194;2023-02-10T06:48:36;103620.0;;;-0.31;100.0
68474;BME280;55461;52.066;5.194;2023-02-10T06:51:50;103617.0;;;-0.28;100.0
68474;BME280;55461;52.066;5.194;2023-02-10T06:53:26;103618.0;;;-0.23;100.0
68474;BME280;55461;52.066;5.194;2023-02-10T06:55:03;103617.0;;;-0.22;100.0
68474;BME280;55461;52.066;5.194;2023-02-10T06:58:16;103611.99999999999;;;-0.09;100.0
68474;BME280;55461;52.066;5.194;2023-02-10T06:59:53;103613.00000000001;;;-0.04;100.0
68474;BME280;55461;52.066;5.194;2023-02-10T07:01:29;103620.0;;;-0.06;100.0
68474;BME280;55461;52.066;5.194;2023-02-10T07:03:05;103629.0;;;-0.1;100.0
68474;BME280;55461;52.066;5.194;2023-02-10T07:06:18;103628.0;;;-0.09;100.0
68474;BME280;55461;52.066;5.194;2023-02-10T07:07:56;103629.0;;;-0.09;100.0
68474;BME280;55461;52.066;5.194;2023-02-10T07:09:32;103625.0;;;-0.09;100.0
68474;BME280;55461;52.066;5.194;2023-02-10T07:12:44;103629.0;;;-0.05;100.0
68474;BME280;55461;52.066;5.194;2023-02-10T07:14:20;103626.0;;;-0.05;100.0
68474;BME280;55461;52.066;5.194;2023-02-10T07:15:56;103627.0;;;-0.05;100.0
68474;BME280;55461;52.066;5.194;2023-02-10T07:19:09;103623.0;;;-0.03;100.0
68474;BME280;55461;52.066;5.194;2023-02-10T07:20:45;103622.0;;;0.0;100.0
68474;BME280;55461;52.066;5.194;2023-02-10T07:22:21;103623.0;;;0.04;100.0
68474;BME280;55461;52.066;5.194;2023-02-10T07:25:33;103616.00000000001;;;0.05;100.0
68474;BME280;55461;52.066;5.194;2023-02-10T07:27:10;103617.0;;;0.09;100.0
68474;BME280;55461;52.066;5.194;2023-02-10T07:28:46;103630.0;;;0.16;100.0
68474;BME280;55461;52.066;5.194;2023-02-10T07:30:23;103633.99999999999;;;0.18;100.0
68474;BME280;55461;52.066;5.194;2023-02-10T07:33:37;103638.00000000001;;;0.17;100.0
68474;BME280;55461;52.066;5.194;2023-02-10T07:35:14;103642.0;;;0.17;100.0
68474;BME280;55461;52.066;5.194;2023-02-10T07:36:53;103643.0;;;0.26;100.0
68474;BME280;55461;52.066;5.194;2023-02-10T07:40:09;103650.0;;;0.35;100.0
68474;BME280;55461;52.066;5.194;2023-02-10T07:41:45;103653.0;;;0.41;100.0
68474;BME280;55461;52.066;5.194;2023-02-10T07:43:21;103657.0;;;0.49;100.0
68474;BME280;55461;52.066;5.194;2023-02-10T07:44:57;103666.00000000001;;;0.54;100.0
68474;BME280;55461;52.066;5.194;2023-02-10T07:48:11;103666.00000000001;;;0.49;100.0
68474;BME280;55461;52.066;5.194;2023-02-10T07:49:47;103663.00000000001;;;0.5;100.0
68474;BME280;55461;52.066;5.194;2023-02-10T07:51:24;103655.0;;;0.48;100.0
68474;BME280;55461;52.066;5.194;2023-02-10T07:54:37;103655.0;;;0.52;100.0
68474;BME280;55461;52.066;5.194;2023-02-10T07:56:13;103667.0;;;0.64;100.0
68474;BME280;55461;52.066;5.194;2023-02-10T07:57:51;103668.0;;;0.77;100.0
68474;BME280;55461;52.066;5.194;2023-02-10T08:01:06;103675.0;;;0.75;100.0
68474;BME280;55461;52.066;5.194;2023-02-10T08:02:43;103671.0;;;0.69;100.0
68474;BME280;55461;52.066;5.194;2023-02-10T08:04:20;103668.0;;;0.66;100.0
68474;BME280;55461;52.066;5.194;2023-02-10T08:05:55;103663.00000000001;;;0.61;100.0
68474;BME280;55461;52.066;5.194;2023-02-10T08:09:08;103658.99999999999;;;0.69;100.0
68474;BME280;55461;52.066;5.194;2023-02-10T08:10:47;103658.0;;;0.64;100.0
68474;BME280;55461;52.066;5.194;2023-02-10T08:12:23;103663.00000000001;;;0.69;100.0
68474;BME280;55461;52.066;5.194;2023-02-10T08:15:38;103667.0;;;0.76;100.0
68474;BME280;55461;52.066;5.194;2023-02-10T08:17:14;103668.0;;;0.68;100.0
68474;BME280;55461;52.066;5.194;2023-02-10T08:18:51;103664.00000000001;;;0.66;100.0
68474;BME280;55461;52.066;5.194;2023-02-10T08:20:27;103663.00000000001;;;0.66;100.0
68474;BME280;55461;52.066;5.194;2023-02-10T08:23:40;103659.99999999999;;;0.76;100.0
68474;BME280;55461;52.066;5.194;2023-02-10T08:25:16;103658.0;;;0.81;100.0
68474;BME280;55461;52.066;5.194;2023-02-10T08:26:52;103652.0;;;0.81;100.0
68474;BME280;55461;52.066;5.194;2023-02-10T08:30:06;103661.99999999999;;;0.79;100.0
68474;BME280;55461;52.066;5.194;2023-02-10T08:31:43;103659.99999999999;;;0.89;100.0
68474;BME280;55461;52.066;5.194;2023-02-10T08:33:19;103663.00000000001;;;0.95;100.0
68474;BME280;55461;52.066;5.194;2023-02-10T08:36:31;103664.00000000001;;;0.87;100.0
68474;BME280;55461;52.066;5.194;2023-02-10T08:38:09;103661.99999999999;;;0.99;100.0
68474;BME280;55461;52.066;5.194;2023-02-10T08:39:45;103659.99999999999;;;0.99;100.0
68474;BME280;55461;52.066;5.194;2023-02-10T08:42:57;103659.99999999999;;;1.07;100.0
68474;BME280;55461;52.066;5.194;2023-02-10T08:44:34;103667.0;;;0.98;100.0
68474;BME280;55461;52.066;5.194;2023-02-10T08:46:11;103669.0;;;1.18;100.0
68474;BME280;55461;52.066;5.194;2023-02-10T08:47:48;103667.0;;;1.21;100.0
68474;BME280;55461;52.066;5.194;2023-02-10T08:51:07;103668.0;;;1.23;100.0
68474;BME280;55461;52.066;5.194;2023-02-10T08:52:43;103666.00000000001;;;1.29;100.0
68474;BME280;55461;52.066;5.194;2023-02-10T08:54:20;103670.0;;;1.32;100.0
68474;BME280;55461;52.066;5.194;2023-02-10T08:57:38;103667.0;;;1.4;100.0
68474;BME280;55461;52.066;5.194;2023-02-10T08:59:15;103670.0;;;1.49;100.0
68474;BME280;55461;52.066;5.194;2023-02-10T09:00:52;103669.0;;;1.33;100.0
68474;BME280;55461;52.066;5.194;2023-02-10T09:02:30;103669.0;;;1.41;100.0
68474;BME280;55461;52.066;5.194;2023-02-10T09:05:45;103669.0;;;1.39;100.0
68474;BME280;55461;52.066;5.194;2023-02-10T09:07:22;103680.0;;;1.51;100.0
68474;BME280;55461;52.066;5.194;2023-02-10T09:09:00;103680.0;;;1.58;100.0
68474;BME280;55461;52.066;5.194;2023-02-10T09:12:14;103682.0;;;1.59;100.0
68474;BME280;55461;52.066;5.194;2023-02-10T09:13:51;103680.0;;;1.66;100.0
68474;BME280;55461;52.066;5.194;2023-02-10T09:15:28;103677.0;;;1.8;100.0
68474;BME280;55461;52.066;5.194;2023-02-10T09:17:05;103679.0;;;1.71;100.0
68474;BME280;55461;52.066;5.194;2023-02-10T09:20:18;103680.0;;;1.8;100.0
68474;BME280;55461;52.066;5.194;2023-02-10T09:21:55;103682.0;;;1.79;100.0
68474;BME280;55461;52.066;5.194;2023-02-10T09:23:32;103684.99999999999;;;1.88;100.0
68474;BME280;55461;52.066;5.194;2023-02-10T09:26:44;103683.0;;;1.9;100.0
68474;BME280;55461;52.066;5.194;2023-02-10T09:28:21;103681.0;;;1.98;100.0
68474;BME280;55461;52.066;5.194;2023-02-10T09:29:59;103686.99999999999;;;2.05;100.0
68474;BME280;55461;52.066;5.194;2023-02-10T09:31:35;103683.99999999999;;;2.14;100.0
68474;BME280;55461;52.066;5.194;2023-02-10T09:34:48;103686.99999999999;;;2.23;100.0
68474;BME280;55461;52.066;5.194;2023-02-10T09:36:24;103693.0;;;2.25;100.0
68474;BME280;55461;52.066;5.194;2023-02-10T09:38:00;103692.0;;;2.27;100.0
68474;BME280;55461;52.066;5.194;2023-02-10T09:41:25;103695.0;;;2.34;100.0
68474;BME280;55461;52.066;5.194;2023-02-10T09:43:17;103698.0;;;2.41;100.0
68474;BME280;55461;52.066;5.194;2023-02-10T09:45:09;103696.0;;;2.48;100.0
68474;BME280;55461;52.066;5.194;2023-02-10T09:46:58;103695.0;;;2.54;100.0
68474;BME280;55461;52.066;5.194;2023-02-10T09:49:07;103696.0;;;2.56;100.0
68474;BME280;55461;52.066;5.194;2023-02-10T09:50:55;103693.0;;;2.62;100.0
68474;BME280;55461;52.066;5.194;2023-02-10T09:52:45;103693.0;;;2.64;100.0
68474;BME280;55461;52.066;5.194;2023-02-10T09:56:14;103689.00000000001;;;2.72;99.89
68474;BME280;55461;52.066;5.194;2023-02-10T09:57:58;103692.0;;;2.7;100.0
68474;BME280;55461;52.066;5.194;2023-02-10T09:59:36;103683.0;;;2.85;100.0
68474;BME280;55461;52.066;5.194;2023-02-10T10:01:16;103690.00000000001;;;2.9;100.0
68474;BME280;55461;52.066;5.194;2023-02-10T10:04:38;103683.0;;;2.91;99.54
68474;BME280;55461;52.066;5.194;2023-02-10T10:06:20;103684.99999999999;;;2.98;99.37
68474;BME280;55461;52.066;5.194;2023-02-10T10:07:58;103688.00000000001;;;3.02;99.23
68474;BME280;55461;52.066;5.194;2023-02-10T10:09:40;103688.00000000001;;;2.98;99.24
68474;BME280;55461;52.066;5.194;2023-02-10T10:13:02;103692.0;;;3.1;98.6
68474;BME280;55461;52.066;5.194;2023-02-10T10:14:40;103690.00000000001;;;3.1;98.63
68474;BME280;55461;52.066;5.194;2023-02-10T10:16:24;103691.00000000001;;;3.22;98.26
68474;BME280;55461;52.066;5.194;2023-02-10T10:18:10;103689.00000000001;;;3.28;97.54
68474;BME280;55461;52.066;5.194;2023-02-10T10:20:01;103692.0;;;3.35;97.55
68474;BME280;55461;52.066;5.194;2023-02-10T10:23:43;103682.0;;;3.35;97.29
68474;BME280;55461;52.066;5.194;2023-02-10T10:25:38;103682.0;;;3.53;97.19
68474;BME280;55461;52.066;5.194;2023-02-10T10:28:24;103671.0;;;3.34;96.85
68474;BME280;55461;52.066;5.194;2023-02-10T10:31:52;103671.0;;;3.43;96.77
68474;BME280;55461;52.066;5.194;2023-02-10T10:33:37;103683.0;;;3.55;96.82
68474;BME280;55461;52.066;5.194;2023-02-10T10:35:20;103675.0;;;3.63;96.69
68474;BME280;55461;52.066;5.194;2023-02-10T10:36:59;103664.00000000001;;;3.64;96.33
68474;BME280;55461;52.066;5.194;2023-02-10T10:38:41;103666.00000000001;;;3.68;96.66
68474;BME280;55461;52.066;5.194;2023-02-10T10:42:14;103667.0;;;3.86;96.32
68474;BME280;55461;52.066;5.194;2023-02-10T10:43:55;103654.0;;;3.96;95.92
68474;BME280;55461;52.066;5.194;2023-02-10T10:45:36;103655.0;;;4.04;95.58
68474;BME280;55461;52.066;5.194;2023-02-10T10:47:20;103657.0;;;4.16;95.28
68474;BME280;55461;52.066;5.194;2023-02-10T10:49:01;103663.00000000001;;;4.16;94.7
68474;BME280;55461;52.066;5.194;2023-02-10T10:52:25;103663.00000000001;;;4.3;94.54